createdAt,value
2018-09-05T00:00:02.202Z,101004.30
2018-09-05T00:02:30.417Z,101000.34
2018-09-05T00:04:58.641Z,100995.89
2018-09-05T00:07:26.858Z,101004.05
2018-09-05T00:09:55.079Z,100995.39
2018-09-05T00:12:23.341Z,100993.99
2018-09-05T00:14:51.845Z,100996.05
2018-09-05T00:17:20.122Z,100998.23
2018-09-05T00:19:48.347Z,100999.02
2018-09-05T00:22:16.566Z,100997.53
2018-09-05T00:24:44.811Z,101003.63
2018-09-05T00:27:14.145Z,101002.31
2018-09-05T00:29:42.516Z,101000.38
2018-09-05T00:32:10.747Z,100989.94
2018-09-05T00:34:38.985Z,100990.78
2018-09-05T00:37:07.294Z,100987.36
2018-09-05T00:39:35.560Z,100992.64
2018-09-05T00:42:03.782Z,100994.75
2018-09-05T00:44:32.023Z,100987.36
2018-09-05T00:47:00.254Z,100988.96
2018-09-05T00:49:28.516Z,100987.22
2018-09-05T00:51:56.738Z,100982.39
2018-09-05T00:54:24.974Z,100986.88
2018-09-05T00:56:53.261Z,100987.91
2018-09-05T00:59:21.503Z,100991.75
2018-09-05T01:01:49.721Z,100993.36
2018-09-05T01:04:17.983Z,100991.14
2018-09-05T01:06:46.198Z,100988.95
2018-09-05T01:09:14.491Z,100994.00
2018-09-05T01:11:42.725Z,100987.34
2018-09-05T01:14:10.945Z,100989.81
2018-09-05T01:16:39.294Z,100992.12
2018-09-05T01:19:08.573Z,100989.45
2018-09-05T01:21:37.902Z,100992.85
2018-09-05T01:24:06.838Z,100989.01
2018-09-05T01:26:35.075Z,100997.19
2018-09-05T01:29:03.389Z,100990.70
2018-09-05T01:31:31.651Z,100998.84
2018-09-05T01:33:59.871Z,100991.98
2018-09-05T01:36:28.207Z,100992.63
2018-09-05T01:38:56.434Z,101000.28
2018-09-05T01:41:24.722Z,101003.14
2018-09-05T01:43:52.955Z,100999.13
2018-09-05T01:46:21.210Z,100999.58
2018-09-05T01:48:49.443Z,100995.52
2018-09-05T01:51:17.665Z,100992.25
2018-09-05T01:53:45.903Z,100999.97
2018-09-05T01:56:14.209Z,101003.32
2018-09-05T01:58:42.497Z,101006.17
2018-09-05T02:01:10.719Z,101010.11
2018-09-05T02:03:38.941Z,101008.45
2018-09-05T02:06:07.299Z,101005.36
2018-09-05T02:08:35.556Z,101005.95
2018-09-05T02:11:03.747Z,101003.72
2018-09-05T02:13:31.961Z,101008.12
2018-09-05T02:16:00.188Z,101012.55
2018-09-05T02:18:28.423Z,101008.48
2018-09-05T02:20:56.622Z,101008.31
2018-09-05T02:23:24.882Z,101009.01
2018-09-05T02:25:53.094Z,101010.92
2018-09-05T02:28:21.319Z,101006.03
2018-09-05T02:30:49.562Z,101003.64
2018-09-05T02:33:17.794Z,101000.69
2018-09-05T02:35:46.005Z,100999.90
2018-09-05T02:38:14.227Z,101004.30
2018-09-05T02:40:42.466Z,100999.14
2018-09-05T02:43:10.698Z,101004.65
2018-09-05T02:45:38.925Z,101002.29
2018-09-05T02:48:07.143Z,101001.42
2018-09-05T02:50:35.362Z,101005.27
2018-09-05T02:53:03.591Z,101005.06
2018-09-05T02:55:37.036Z,101005.27
2018-09-05T02:58:05.360Z,101008.50
2018-09-05T03:00:33.595Z,101009.50
2018-09-05T03:03:01.819Z,101009.88
2018-09-05T03:05:30.048Z,101004.65
2018-09-05T03:07:58.327Z,101007.08
2018-09-05T03:10:26.563Z,100998.30
2018-09-05T03:12:54.835Z,101002.19
2018-09-05T03:15:23.042Z,101000.48
2018-09-05T03:17:51.270Z,100999.90
2018-09-05T03:20:19.510Z,101003.02
2018-09-05T03:22:47.994Z,101006.48
2018-09-05T03:25:16.213Z,101004.23
2018-09-05T03:27:44.439Z,101007.80
2018-09-05T03:30:12.770Z,101000.00
2018-09-05T03:32:41.077Z,101007.91
2018-09-05T03:35:09.222Z,101002.63
2018-09-05T03:37:37.471Z,101003.54
2018-09-05T03:40:06.039Z,101010.98
2018-09-05T03:42:34.414Z,101010.46
2018-09-05T03:45:02.650Z,101012.84
2018-09-05T03:47:30.887Z,101008.91
2018-09-05T03:49:59.103Z,101010.66
2018-09-05T03:52:27.333Z,101013.55
2018-09-05T03:54:55.560Z,101011.75
2018-09-05T03:57:23.766Z,101015.31
2018-09-05T03:59:52.001Z,101014.20
2018-09-05T04:02:20.226Z,101012.17
2018-09-05T04:04:48.446Z,101011.99
2018-09-05T04:07:16.658Z,101008.04
2018-09-05T04:09:44.930Z,101013.47
2018-09-05T04:12:13.225Z,101016.30
2018-09-05T04:14:41.397Z,101008.67
2018-09-05T04:17:09.634Z,101011.69
2018-09-05T04:19:37.883Z,101004.44
2018-09-05T04:22:06.143Z,101007.98
2018-09-05T04:24:34.310Z,101010.29
2018-09-05T04:27:02.525Z,101003.36
2018-09-05T04:29:30.847Z,100997.67
2018-09-05T04:31:58.993Z,101002.01
2018-09-05T04:34:27.222Z,101005.95
2018-09-05T04:36:55.437Z,101009.39
2018-09-05T04:39:23.650Z,101011.03
2018-09-05T04:41:51.907Z,101008.80
2018-09-05T04:44:20.122Z,101004.67
2018-09-05T04:46:48.350Z,101009.36
2018-09-05T04:49:16.586Z,101003.89
2018-09-05T04:51:44.811Z,101003.73
2018-09-05T04:54:13.025Z,101011.48
2018-09-05T04:56:41.263Z,101011.19
2018-09-05T04:59:10.485Z,101004.32
2018-09-05T05:01:38.698Z,101013.20
2018-09-05T05:04:06.948Z,101013.30
2018-09-05T05:06:35.187Z,101013.39
2018-09-05T05:09:03.599Z,101016.22
2018-09-05T05:11:31.826Z,101020.44
2018-09-05T05:14:00.051Z,101018.83
2018-09-05T05:16:28.262Z,101023.45
2018-09-05T05:18:56.492Z,101025.28
2018-09-05T05:21:24.709Z,101025.19
2018-09-05T05:23:52.940Z,101028.66
2018-09-05T05:26:21.146Z,101031.05
2018-09-05T05:28:49.407Z,101025.91
2018-09-05T05:31:17.613Z,101029.05
2018-09-05T05:33:45.836Z,101024.45
2018-09-05T05:36:14.571Z,101026.89
2018-09-05T05:38:42.802Z,101031.59
2018-09-05T05:41:11.005Z,101026.79
2018-09-05T05:43:39.302Z,101027.09
2018-09-05T05:46:07.930Z,101027.91
2018-09-05T05:48:36.241Z,101030.27
2018-09-05T05:51:04.538Z,101032.69
2018-09-05T05:53:32.766Z,101033.86
2018-09-05T05:56:01.067Z,101027.27
2018-09-05T05:58:29.357Z,101031.09
2018-09-05T06:00:57.693Z,101039.16
2018-09-05T06:03:25.903Z,101041.11
2018-09-05T06:05:54.194Z,101039.34
2018-09-05T06:08:22.442Z,101038.84
2018-09-05T06:10:50.682Z,101040.31
2018-09-05T06:13:18.897Z,101043.06
2018-09-05T06:15:47.119Z,101042.56
2018-09-05T06:18:15.330Z,101041.40
2018-09-05T06:20:43.786Z,101040.18
2018-09-05T06:23:11.993Z,101042.22
2018-09-05T06:25:40.235Z,101042.05
2018-09-05T06:28:08.446Z,101042.41
2018-09-05T06:30:36.890Z,101043.83
2018-09-05T06:33:05.014Z,101044.48
2018-09-05T06:35:33.302Z,101044.80
2018-09-05T06:38:01.450Z,101043.06
2018-09-05T06:40:29.687Z,101052.84
2018-09-05T06:42:57.902Z,101044.61
2018-09-05T06:45:26.195Z,101042.03
2018-09-05T06:47:54.354Z,101046.74
2018-09-05T06:50:22.595Z,101047.27
2018-09-05T06:52:50.811Z,101050.17
2018-09-05T06:55:19.056Z,101046.77
2018-09-05T06:57:47.310Z,101051.98
2018-09-05T07:00:17.655Z,101051.77
2018-09-05T07:02:45.887Z,101050.61
2018-09-05T07:05:14.155Z,101051.83
2018-09-05T07:07:42.405Z,101051.56
2018-09-05T07:10:10.692Z,101052.80
2018-09-05T07:12:40.050Z,101054.70
2018-09-05T07:15:08.278Z,101051.48
2018-09-05T07:17:36.559Z,101054.77
2018-09-05T07:20:04.763Z,101051.57
2018-09-05T07:22:32.978Z,101051.52
2018-09-05T07:25:01.267Z,101048.56
2018-09-05T07:27:29.483Z,101055.36
2018-09-05T07:29:57.667Z,101052.80
2018-09-05T07:32:25.879Z,101043.97
2018-09-05T07:34:54.102Z,101036.70
2018-09-05T07:37:22.326Z,101040.06
2018-09-05T07:39:50.645Z,101040.37
2018-09-05T07:42:18.871Z,101045.30
2018-09-05T07:44:47.109Z,101037.23
2018-09-05T07:47:15.342Z,101041.98
2018-09-05T07:49:43.548Z,101041.63
2018-09-05T07:52:11.858Z,101047.07
2018-09-05T07:54:40.087Z,101044.33
2018-09-05T07:57:08.371Z,101045.36
2018-09-05T07:59:36.559Z,101044.18
2018-09-05T08:02:04.813Z,101044.49
2018-09-05T08:04:33.059Z,101031.82
2018-09-05T08:07:01.330Z,101042.96
2018-09-05T08:09:29.557Z,101046.13
2018-09-05T08:11:57.795Z,101043.53
2018-09-05T08:14:26.017Z,101038.84
2018-09-05T08:16:54.234Z,101048.50
2018-09-05T08:19:22.482Z,101043.63
2018-09-05T08:21:50.727Z,101035.34
2018-09-05T08:24:19.252Z,101038.42
2018-09-05T08:26:47.456Z,101042.55
2018-09-05T08:29:15.704Z,101038.47
2018-09-05T08:31:43.963Z,101034.54
2018-09-05T08:34:12.206Z,101041.80
2018-09-05T08:36:40.631Z,101033.02
2018-09-05T08:39:10.746Z,101032.89
2018-09-05T08:41:38.997Z,101034.28
2018-09-05T08:44:07.386Z,101029.63
2018-09-05T08:46:35.443Z,101025.37
2018-09-05T08:49:03.763Z,101029.17
2018-09-05T08:51:32.015Z,101025.98
2018-09-05T08:54:00.513Z,101030.35
2018-09-05T08:56:28.881Z,101028.17
2018-09-05T08:58:57.216Z,101015.77
2018-09-05T09:01:25.426Z,101028.08
2018-09-05T09:03:53.656Z,101024.55
2018-09-05T09:06:21.868Z,101025.69
2018-09-05T09:08:50.114Z,101021.00
2018-09-05T09:11:18.369Z,101018.42
2018-09-05T09:13:46.602Z,101022.64
2018-09-05T09:16:14.829Z,101019.61
2018-09-05T09:18:43.082Z,101028.69
2018-09-05T09:21:11.351Z,101018.28
2018-09-05T09:23:39.622Z,101010.88
2018-09-05T09:26:08.572Z,101013.63
2018-09-05T09:28:36.774Z,101006.50
2018-09-05T09:31:05.058Z,101007.20
2018-09-05T09:33:33.326Z,101005.51
2018-09-05T09:36:01.577Z,101004.69
2018-09-05T09:38:29.841Z,101001.88
2018-09-05T09:40:58.058Z,101001.34
2018-09-05T09:43:26.337Z,101002.13
2018-09-05T09:45:54.570Z,101008.98
2018-09-05T09:48:22.794Z,101002.53
2018-09-05T09:50:51.067Z,100999.52
2018-09-05T09:53:19.306Z,101006.97
2018-09-05T09:55:47.518Z,101003.80
2018-09-05T09:58:15.801Z,100995.95
2018-09-05T10:00:49.262Z,100995.91
2018-09-05T10:03:22.946Z,100990.97
2018-09-05T10:05:56.447Z,100997.63
2018-09-05T10:08:29.970Z,100986.07
2018-09-05T10:11:01.519Z,100987.55
2018-09-05T10:13:34.905Z,100978.14
2018-09-05T10:16:08.359Z,100979.67
2018-09-05T10:18:39.690Z,100974.38
2018-09-05T10:21:07.992Z,100967.00
2018-09-05T10:23:36.174Z,100968.16
2018-09-05T10:26:04.427Z,100971.70
2018-09-05T10:28:32.775Z,100967.41
2018-09-05T10:31:01.030Z,100964.08
2018-09-05T10:33:29.258Z,100963.99
2018-09-05T10:35:57.510Z,100959.91
2018-09-05T10:38:25.746Z,100959.90
2018-09-05T10:40:54.074Z,100952.20
2018-09-05T10:43:22.310Z,100948.77
2018-09-05T10:45:50.558Z,100947.66
2018-09-05T10:48:18.819Z,100948.66
2018-09-05T10:50:47.034Z,100942.55
2018-09-05T10:53:15.262Z,100937.45
2018-09-05T10:55:43.485Z,100941.70
2018-09-05T10:58:11.787Z,100937.33
2018-09-05T11:00:39.971Z,100939.33
2018-09-05T11:03:08.562Z,100932.22
2018-09-05T11:05:36.786Z,100934.88
2018-09-05T11:08:05.187Z,100933.50
2018-09-05T11:10:33.632Z,100929.05
2018-09-05T11:13:01.766Z,100926.13
2018-09-05T11:15:29.994Z,100927.92
2018-09-05T11:17:58.258Z,100925.48
2018-09-05T11:20:26.518Z,100923.48
2018-09-05T11:22:54.756Z,100917.05
2018-09-05T11:25:23.023Z,100913.28
2018-09-05T11:27:51.233Z,100914.11
2018-09-05T11:30:19.531Z,100914.80
2018-09-05T11:32:47.787Z,100912.11
2018-09-05T11:35:16.028Z,100912.11
2018-09-05T11:37:44.375Z,100902.66
2018-09-05T11:40:12.660Z,100900.42
2018-09-05T11:42:40.946Z,100899.69
2018-09-05T11:45:09.299Z,100899.25
2018-09-05T11:47:37.579Z,100899.61
2018-09-05T11:50:06.362Z,100899.52
2018-09-05T11:52:34.577Z,100897.80
2018-09-05T11:55:02.830Z,100899.17
2018-09-05T11:57:31.121Z,100895.03
2018-09-05T11:59:59.431Z,100898.37
2018-09-05T12:02:27.683Z,100900.95
2018-09-05T12:04:56.005Z,100903.23
2018-09-05T12:07:24.156Z,100899.17
2018-09-05T12:09:52.419Z,100894.43
2018-09-05T12:12:20.713Z,100896.66
2018-09-05T12:14:48.953Z,100893.90
2018-09-05T12:17:17.199Z,100889.64
2018-09-05T12:19:45.447Z,100884.09
2018-09-05T12:22:13.835Z,100885.98
2018-09-05T12:24:42.071Z,100885.90
2018-09-05T12:27:10.286Z,100880.30
2018-09-05T12:29:38.510Z,100876.25
2018-09-05T12:32:06.742Z,100880.80
2018-09-05T12:34:34.949Z,100874.33
2018-09-05T12:37:03.190Z,100876.06
2018-09-05T12:39:31.435Z,100866.40
2018-09-05T12:41:59.660Z,100866.05
2018-09-05T12:44:27.877Z,100863.63
2018-09-05T12:46:56.338Z,100863.85
2018-09-05T12:49:24.583Z,100857.48
2018-09-05T12:51:52.791Z,100862.59
2018-09-05T12:54:21.050Z,100856.06
2018-09-05T12:56:49.262Z,100859.59
2018-09-05T12:59:17.553Z,100859.80
2018-09-05T13:01:45.762Z,100852.87
2018-09-05T13:04:14.023Z,100849.70
2018-09-05T13:06:42.306Z,100851.03
2018-09-05T13:09:12.354Z,100854.44
2018-09-05T13:11:40.629Z,100852.02
2018-09-05T13:14:08.873Z,100847.88
2018-09-05T13:16:37.394Z,100845.90
2018-09-05T13:19:05.709Z,100848.22
2018-09-05T13:21:33.963Z,100842.26
2018-09-05T13:24:02.238Z,100835.41
2018-09-05T13:26:30.532Z,100838.62
2018-09-05T13:28:58.811Z,100835.81
2018-09-05T13:31:27.055Z,100828.41
2018-09-05T13:33:55.331Z,100827.34
2018-09-05T13:36:24.643Z,100821.49
2018-09-05T13:38:52.876Z,100819.83
2018-09-05T13:41:21.184Z,100816.86
2018-09-05T13:43:49.480Z,100816.06
2018-09-05T13:46:17.750Z,100805.21
2018-09-05T13:48:46.059Z,100796.00
2018-09-05T13:51:14.294Z,100795.80
2018-09-05T13:53:42.529Z,100799.77
2018-09-05T13:56:10.761Z,100798.24
2018-09-05T13:58:39.074Z,100795.70
2018-09-05T14:01:07.608Z,100792.94
2018-09-05T14:03:35.885Z,100787.77
2018-09-05T14:06:05.208Z,100781.26
2018-09-05T14:08:33.422Z,100786.13
2018-09-05T14:11:01.629Z,100788.58
2018-09-05T14:13:29.888Z,100778.45
2018-09-05T14:15:58.135Z,100781.58
2018-09-05T14:18:26.418Z,100781.39
2018-09-05T14:20:54.691Z,100782.45
2018-09-05T14:23:22.914Z,100779.20
2018-09-05T14:25:51.162Z,100776.11
2018-09-05T14:28:19.385Z,100771.17
2018-09-05T14:30:47.617Z,100769.81
2018-09-05T14:33:15.919Z,100768.30
2018-09-05T14:35:44.163Z,100766.90
2018-09-05T14:38:12.458Z,100760.86
2018-09-05T14:40:40.693Z,100765.27
2018-09-05T14:43:08.987Z,100762.17
2018-09-05T14:45:37.220Z,100771.63
2018-09-05T14:48:05.479Z,100767.55
2018-09-05T14:50:33.679Z,100760.41
2018-09-05T14:53:01.906Z,100759.79
2018-09-05T14:55:30.123Z,100768.03
2018-09-05T14:57:58.422Z,100763.50
2018-09-05T15:00:26.671Z,100761.31
2018-09-05T15:02:54.905Z,100755.16
2018-09-05T15:05:23.152Z,100752.42
2018-09-05T15:07:51.856Z,100754.02
2018-09-05T15:10:20.087Z,100750.73
2018-09-05T15:12:48.314Z,100747.12
2018-09-05T15:15:17.046Z,100741.53
2018-09-05T15:17:47.395Z,100740.17
2018-09-05T15:20:15.695Z,100739.44
2018-09-05T15:22:43.945Z,100744.19
2018-09-05T15:25:12.174Z,100733.50
2018-09-05T15:27:40.474Z,100730.08
2018-09-05T15:30:09.396Z,100728.49
2018-09-05T15:32:37.639Z,100728.97
2018-09-05T15:35:06.090Z,100724.62
2018-09-05T15:37:34.344Z,100726.02
2018-09-05T15:40:02.632Z,100723.83
2018-09-05T15:42:30.864Z,100731.89
2018-09-05T15:44:59.089Z,100727.08
2018-09-05T15:47:27.330Z,100728.89
2018-09-05T15:49:55.550Z,100723.50
2018-09-05T15:52:23.791Z,100721.24
2018-09-05T15:54:52.410Z,100724.45
2018-09-05T15:57:20.721Z,100719.72
2018-09-05T15:59:48.899Z,100723.53
2018-09-05T16:02:18.259Z,100722.34
2018-09-05T16:04:46.466Z,100722.75
2018-09-05T16:07:14.698Z,100725.70
2018-09-05T16:09:43.115Z,100726.07
2018-09-05T16:12:11.450Z,100729.53
2018-09-05T16:14:39.744Z,100731.80
2018-09-05T16:17:08.001Z,100739.05
2018-09-05T16:19:36.309Z,100735.66
2018-09-05T16:22:04.662Z,100735.52
2018-09-05T16:24:32.922Z,100732.45
2018-09-05T16:27:01.154Z,100730.86
2018-09-05T16:29:29.381Z,100724.79
2018-09-05T16:31:57.622Z,100722.34
2018-09-05T16:34:25.927Z,100721.36
2018-09-05T16:36:54.161Z,100723.05
2018-09-05T16:39:22.490Z,100723.14
2018-09-05T16:41:50.738Z,100719.75
2018-09-05T16:44:18.971Z,100717.65
2018-09-05T16:46:47.196Z,100714.86
2018-09-05T16:49:15.422Z,100716.16
2018-09-05T16:51:43.646Z,100722.96
2018-09-05T16:54:11.896Z,100724.80
2018-09-05T16:56:40.147Z,100730.36
2018-09-05T16:59:08.366Z,100734.83
2018-09-05T17:01:36.607Z,100737.92
2018-09-05T17:04:04.865Z,100745.20
2018-09-05T17:06:33.099Z,100739.17
2018-09-05T17:09:01.315Z,100738.80
2018-09-05T17:11:29.557Z,100745.69
2018-09-05T17:13:57.773Z,100745.55
2018-09-05T17:16:26.122Z,100746.68
2018-09-05T17:18:54.380Z,100749.17
2018-09-05T17:21:22.638Z,100753.41
2018-09-05T17:23:50.895Z,100766.17
2018-09-05T17:26:19.156Z,100770.42
2018-09-05T17:28:47.382Z,100770.25
2018-09-05T17:31:15.679Z,100767.89
2018-09-05T17:33:43.918Z,100771.76
2018-09-05T17:36:12.204Z,100769.31
2018-09-05T17:38:40.451Z,100772.30
2018-09-05T17:41:08.733Z,100787.61
2018-09-05T17:43:36.985Z,100790.52
2018-09-05T17:46:05.489Z,100791.92
2018-09-05T17:48:33.785Z,100785.86
2018-09-05T17:51:02.032Z,100786.03
2018-09-05T17:53:30.320Z,100785.68
2018-09-05T17:55:58.671Z,100786.82
2018-09-05T17:58:29.285Z,100789.09
2018-09-05T18:00:58.403Z,100785.94
2018-09-05T18:03:26.683Z,100788.51
2018-09-05T18:05:55.006Z,100792.87
2018-09-05T18:08:24.762Z,100794.56
2018-09-05T18:10:53.092Z,100797.14
2018-09-05T18:13:21.354Z,100784.30
2018-09-05T18:15:49.730Z,100779.61
2018-09-05T18:18:17.991Z,100770.53
2018-09-05T18:20:46.410Z,100780.27
2018-09-05T18:23:14.730Z,100770.50
2018-09-05T18:25:43.151Z,100773.57
2018-09-05T18:28:11.534Z,100775.08
2018-09-05T18:30:40.037Z,100773.92
2018-09-05T18:33:08.411Z,100773.88
2018-09-05T18:35:36.851Z,100764.17
2018-09-05T18:38:05.470Z,100760.76
2018-09-05T18:40:34.714Z,100756.53
2018-09-05T18:43:02.946Z,100746.02
2018-09-05T18:45:31.186Z,100745.15
2018-09-05T18:47:59.791Z,100754.14
2018-09-05T18:50:28.067Z,100754.45
2018-09-05T18:53:01.629Z,100750.42
2018-09-05T18:55:29.837Z,100747.19
2018-09-05T18:57:58.153Z,100752.63
2018-09-05T19:00:26.580Z,100756.73
2018-09-05T19:02:54.874Z,100750.66
2018-09-05T19:05:23.105Z,100756.53
2018-09-05T19:07:51.313Z,100754.47
2018-09-05T19:10:19.586Z,100758.69
2018-09-05T19:12:48.070Z,100754.62
2018-09-05T19:15:16.330Z,100759.48
2018-09-05T19:17:44.579Z,100753.69
2018-09-05T19:20:14.014Z,100756.38
2018-09-05T19:22:42.302Z,100761.44
2018-09-05T19:25:10.536Z,100767.06
2018-09-05T19:27:38.880Z,100761.67
2018-09-05T19:30:07.170Z,100759.63
2018-09-05T19:32:35.415Z,100760.98
2018-09-05T19:35:05.058Z,100759.92
2018-09-05T19:37:33.310Z,100766.48
2018-09-05T19:40:01.514Z,100762.84
2018-09-05T19:42:29.903Z,100761.98
2018-09-05T19:44:58.026Z,100755.87
2018-09-05T19:47:26.282Z,100765.10
2018-09-05T19:49:54.629Z,100754.89
2018-09-05T19:52:22.961Z,100758.72
2018-09-05T19:54:51.179Z,100756.79
2018-09-05T19:57:19.417Z,100752.17
2018-09-05T19:59:47.698Z,100755.16
2018-09-05T20:02:15.959Z,100753.23
2018-09-05T20:04:45.043Z,100765.72
2018-09-05T20:07:13.557Z,100765.27
2018-09-05T20:09:41.778Z,100760.66
2018-09-05T20:12:10.033Z,100763.92
2018-09-05T20:14:38.285Z,100760.12
2018-09-05T20:17:06.611Z,100767.97
2018-09-05T20:19:34.983Z,100772.34
2018-09-05T20:22:03.219Z,100770.13
2018-09-05T20:24:31.603Z,100769.81
2018-09-05T20:26:59.867Z,100766.03
2018-09-05T20:29:28.075Z,100761.97
2018-09-05T20:31:56.310Z,100767.27
2018-09-05T20:34:24.597Z,100769.63
2018-09-05T20:36:52.850Z,100759.77
2018-09-05T20:39:21.075Z,100759.17
2018-09-05T20:41:49.338Z,100758.60
2018-09-05T20:44:18.720Z,100758.98
2018-09-05T20:46:46.974Z,100757.72
2018-09-05T20:49:15.219Z,100755.70
2018-09-05T20:51:44.558Z,100753.04
2018-09-05T20:54:12.835Z,100758.75
2018-09-05T20:56:41.141Z,100762.31
2018-09-05T20:59:10.437Z,100760.08
2018-09-05T21:01:38.710Z,100765.59
2018-09-05T21:04:06.966Z,100765.94
2018-09-05T21:06:35.198Z,100752.61
2018-09-05T21:09:03.677Z,100755.66
2018-09-05T21:11:31.991Z,100758.05
2018-09-05T21:14:00.223Z,100757.77
2018-09-05T21:16:28.483Z,100756.00
2018-09-05T21:18:56.711Z,100757.20
2018-09-05T21:21:24.938Z,100755.82
2018-09-05T21:23:53.176Z,100756.69
2018-09-05T21:26:21.439Z,100761.66
2018-09-05T21:28:49.658Z,100756.69
2018-09-05T21:31:17.877Z,100753.34
2018-09-05T21:33:46.094Z,100754.61
2018-09-05T21:36:14.345Z,100752.57
2018-09-05T21:38:42.558Z,100752.86
2018-09-05T21:41:11.215Z,100757.59
2018-09-05T21:43:39.490Z,100759.51
2018-09-05T21:46:07.755Z,100754.23
2018-09-05T21:48:35.987Z,100755.30
2018-09-05T21:51:04.558Z,100750.02
2018-09-05T21:53:32.800Z,100753.17
2018-09-05T21:56:01.058Z,100753.02
2018-09-05T21:58:29.278Z,100743.44
2018-09-05T22:00:57.514Z,100746.89
2018-09-05T22:03:26.301Z,100749.77
2018-09-05T22:05:54.645Z,100752.58
2018-09-05T22:08:22.870Z,100750.01
2018-09-05T22:10:51.097Z,100751.12
2018-09-05T22:13:19.374Z,100743.56
2018-09-05T22:15:48.382Z,100746.20
2018-09-05T22:18:17.630Z,100748.84
2018-09-05T22:20:45.898Z,100756.51
2018-09-05T22:23:14.113Z,100750.55
2018-09-05T22:25:42.326Z,100757.97
2018-09-05T22:28:10.562Z,100748.78
2018-09-05T22:30:38.783Z,100756.70
2018-09-05T22:33:07.310Z,100752.14
2018-09-05T22:35:35.536Z,100747.78
2018-09-05T22:38:03.764Z,100749.50
2018-09-05T22:40:36.131Z,100740.22
2018-09-05T22:44:13.247Z,100740.72
2018-09-05T22:46:52.702Z,100743.09
2018-09-05T22:49:39.595Z,100750.06
2018-09-05T22:54:30.678Z,100750.38
2018-09-05T22:57:46.812Z,100748.73
2018-09-05T23:01:27.842Z,100747.92
2018-09-05T23:06:07.039Z,100744.91
2018-09-05T23:08:36.625Z,100738.55
2018-09-05T23:11:17.221Z,100736.50
2018-09-05T23:13:55.650Z,100734.20
2018-09-05T23:17:35.387Z,100730.48
2018-09-05T23:22:13.847Z,100730.43
2018-09-05T23:24:42.086Z,100728.66
2018-09-05T23:27:10.334Z,100727.16
2018-09-05T23:29:38.574Z,100721.01
2018-09-05T23:32:06.826Z,100723.78
2018-09-05T23:34:35.060Z,100720.33
2018-09-05T23:37:03.344Z,100716.96
2018-09-05T23:39:31.626Z,100720.06
2018-09-05T23:41:59.847Z,100716.77
2018-09-05T23:44:28.071Z,100717.09
2018-09-05T23:46:56.691Z,100706.03
2018-09-05T23:49:24.912Z,100706.44
2018-09-05T23:51:53.160Z,100699.61
2018-09-05T23:54:21.381Z,100704.03
2018-09-05T23:56:49.831Z,100699.88
2018-09-05T23:59:18.051Z,100700.02
